Main page
METAR-TAF:

METAR-TAF

Airports :

Zvartnots International Airport

Yerevan, Armenia

latitude: 40-08-50N, longitude: 044-23-45E, elevation: 865 m

Current weather observation

The report was made 22 minutes ago, at 06:00 UTC
Wind 1 kt from variable directions
Temperature 14°C
Humidity 77%
Pressure 1021 hPa
Visibility 10 km or more

METAR: UDYZ 230600Z VRB01KT 9999 NSC 14/10 Q1021 R09/190065 NOSIG

Time: 10:22 (06:22 UTC)

Forecast

The report was made 1 hour and 17 minutes ago, at 05:05 UTC
Forecast valid from 23 at 06 UTC to 24 at 06 UTC
Wind 6 kt from the West/Southwest
Visibility 10 km or more
Few clouds at a height of 4000 ft
Scattered clouds at a height of 10000 ft
Temporary
from 23 at 09 UTC to 23 at 18 UTC
Wind 20 kt from variable directions
Scattered clouds at a height of 4000 ft, Cumulonimbus.

TAF: UDYZ 230505Z 2306/2406 24006KT 9999 FEW040 SCT100 TEMPO 2309/2318 VRB20KT SCT040CB

Weather observations and forecasts of more than 4000 airports (METAR and TAF reports).

The available stations are represented by yellow and red dots on the map.

Hover mouse over dot to see the name of the station.

Then click to see weather observations and forecasts.

To change the map : click on the green buttons with a black cross to zoom in, on the green button with a dash to zoom out, or on the green arrows for adjacent maps.


METAR-TAF: